createdAt,value
2023-03-02T00:01:08.431Z,8.89
2023-03-02T00:03:39.719Z,8.85
2023-03-02T00:06:09.662Z,8.84
2023-03-02T00:08:38.337Z,8.89
2023-03-02T00:11:05.309Z,8.93
2023-03-02T00:13:35.411Z,8.94
2023-03-02T00:16:02.381Z,8.92
2023-03-02T00:18:29.579Z,8.92
2023-03-02T00:20:56.471Z,8.90
2023-03-02T00:23:24.742Z,8.85
2023-03-02T00:25:51.714Z,8.79
2023-03-02T00:28:18.676Z,8.74
2023-03-02T00:30:45.580Z,8.74
2023-03-02T00:33:12.462Z,8.74
2023-03-02T00:35:40.434Z,8.75
2023-03-02T00:38:08.242Z,8.74
2023-03-02T00:40:36.837Z,8.74
2023-03-02T00:43:04.140Z,8.77
2023-03-02T00:45:31.145Z,8.77
2023-03-02T00:47:58.043Z,8.76
2023-03-02T00:50:25.020Z,8.69
2023-03-02T00:52:52.154Z,8.63
2023-03-02T00:55:19.437Z,8.59
2023-03-02T00:57:55.112Z,8.57
2023-03-02T01:00:24.252Z,8.53
2023-03-02T01:02:51.268Z,8.54
2023-03-02T01:05:18.475Z,8.54
2023-03-02T01:07:45.461Z,8.49
2023-03-02T01:10:13.059Z,8.48
2023-03-02T01:12:40.448Z,8.52
2023-03-02T01:15:11.036Z,8.55
2023-03-02T01:17:39.625Z,8.54
2023-03-02T01:20:08.871Z,8.52
2023-03-02T01:22:35.773Z,8.49
2023-03-02T01:25:03.424Z,8.49
2023-03-02T01:27:30.298Z,8.49
2023-03-02T01:29:57.321Z,8.51
2023-03-02T01:32:25.735Z,8.56
2023-03-02T01:34:52.717Z,8.58
2023-03-02T01:37:20.751Z,8.59
2023-03-02T01:39:47.738Z,8.51
2023-03-02T01:42:14.993Z,8.39
2023-03-02T01:44:45.065Z,8.26
2023-03-02T01:47:17.849Z,8.15
2023-03-02T01:49:52.933Z,8.12
2023-03-02T01:52:20.148Z,8.15
2023-03-02T01:54:50.372Z,8.18
2023-03-02T01:57:23.028Z,8.15
2023-03-02T01:59:59.577Z,8.18
2023-03-02T02:02:27.559Z,8.23
2023-03-02T02:04:57.282Z,8.25
2023-03-02T02:07:24.295Z,8.31
2023-03-02T02:09:54.176Z,8.26
2023-03-02T02:12:23.449Z,8.17
2023-03-02T02:14:51.460Z,8.08
2023-03-02T02:17:19.734Z,7.97
2023-03-02T02:20:06.359Z,7.86
2023-03-02T02:22:49.610Z,7.82
2023-03-02T02:25:34.762Z,7.88
2023-03-02T02:28:08.461Z,7.96
2023-03-02T02:30:38.004Z,8.03
2023-03-02T02:33:06.707Z,8.08
2023-03-02T02:35:38.457Z,8.07
2023-03-02T02:38:08.497Z,8.11
2023-03-02T02:40:46.408Z,8.06
2023-03-02T02:43:20.022Z,8.03
2023-03-02T02:45:50.953Z,8.00
2023-03-02T02:48:23.126Z,7.96
2023-03-02T02:50:59.941Z,7.82
2023-03-02T02:53:34.933Z,7.65
2023-03-02T02:56:04.278Z,7.52
2023-03-02T02:58:40.033Z,7.45
2023-03-02T03:01:07.863Z,7.33
2023-03-02T03:03:39.163Z,7.29
2023-03-02T03:06:09.313Z,7.26
2023-03-02T03:08:57.878Z,7.25
2023-03-02T03:11:28.739Z,7.23
2023-03-02T03:14:08.840Z,7.12
2023-03-02T03:16:39.245Z,7.08
2023-03-02T03:19:15.687Z,7.01
2023-03-02T03:21:42.891Z,7.00
2023-03-02T03:24:10.195Z,7.03
2023-03-02T03:26:37.278Z,7.00
2023-03-02T03:29:06.141Z,6.95
2023-03-02T03:31:33.802Z,6.99
2023-03-02T03:34:01.772Z,7.09
2023-03-02T03:36:31.248Z,7.18
2023-03-02T03:38:59.306Z,7.30
2023-03-02T03:41:26.846Z,7.41
2023-03-02T03:43:53.917Z,7.47
2023-03-02T03:46:22.487Z,7.45
2023-03-02T03:48:49.892Z,7.32
2023-03-02T03:51:17.581Z,7.13
2023-03-02T03:53:44.607Z,6.98
2023-03-02T03:56:12.254Z,6.87
2023-03-02T03:58:39.549Z,6.82
2023-03-02T04:01:06.650Z,6.81
2023-03-02T04:03:34.899Z,6.87
2023-03-02T04:06:01.876Z,6.98
2023-03-02T04:08:28.814Z,7.10
2023-03-02T04:10:55.735Z,7.22
2023-03-02T04:13:22.675Z,7.35
2023-03-02T04:15:49.643Z,7.45
2023-03-02T04:18:16.574Z,7.50
2023-03-02T04:20:44.810Z,7.58
2023-03-02T04:23:12.371Z,7.64
2023-03-02T04:25:39.399Z,7.70
2023-03-02T04:28:06.435Z,7.74
2023-03-02T04:30:33.397Z,7.77
2023-03-02T04:33:00.458Z,7.80
2023-03-02T04:35:27.489Z,7.86
2023-03-02T04:37:56.088Z,7.90
2023-03-02T04:40:23.359Z,7.90
2023-03-02T04:42:50.370Z,7.91
2023-03-02T04:45:17.905Z,7.91
2023-03-02T04:47:44.848Z,7.89
2023-03-02T04:50:14.702Z,7.85
2023-03-02T04:52:42.090Z,7.87
2023-03-02T04:55:19.986Z,7.88
2023-03-02T04:57:47.029Z,7.89
2023-03-02T05:00:16.321Z,7.74
2023-03-02T05:02:43.354Z,7.60
2023-03-02T05:05:17.745Z,7.44
2023-03-02T05:07:45.543Z,7.28
2023-03-02T05:10:15.621Z,7.13
2023-03-02T05:12:55.193Z,7.14
2023-03-02T05:15:23.474Z,7.20
2023-03-02T05:17:50.562Z,7.22
2023-03-02T05:20:19.278Z,7.24
2023-03-02T05:22:46.747Z,7.26
2023-03-02T05:25:14.942Z,7.24
2023-03-02T05:27:41.845Z,7.21
2023-03-02T05:30:10.755Z,7.27
2023-03-02T05:32:37.686Z,7.35
2023-03-02T05:35:05.804Z,7.46
2023-03-02T05:37:33.190Z,7.55
2023-03-02T05:40:00.694Z,7.66
2023-03-02T05:42:28.944Z,7.73
2023-03-02T05:44:55.982Z,7.74
2023-03-02T05:47:22.880Z,7.71
2023-03-02T05:49:49.783Z,7.67
2023-03-02T05:52:16.646Z,7.59
2023-03-02T05:54:43.507Z,7.55
2023-03-02T05:57:10.382Z,7.53
2023-03-02T05:59:38.593Z,7.50
2023-03-02T06:02:05.591Z,7.47
2023-03-02T06:04:32.524Z,7.42
2023-03-02T06:06:59.494Z,7.37
2023-03-02T06:09:27.376Z,7.36
2023-03-02T06:11:54.333Z,7.38
2023-03-02T06:14:21.251Z,7.38
2023-03-02T06:16:49.530Z,7.42
2023-03-02T06:19:16.579Z,7.42
2023-03-02T06:21:43.476Z,7.40
2023-03-02T06:24:10.353Z,7.37
2023-03-02T06:26:37.251Z,7.32
2023-03-02T06:29:05.511Z,7.29
2023-03-02T06:31:32.612Z,7.31
2023-03-02T06:34:01.212Z,7.41
2023-03-02T06:36:28.626Z,7.45
2023-03-02T06:38:55.550Z,7.39
2023-03-02T06:41:22.735Z,7.29
2023-03-02T06:43:49.696Z,7.28
2023-03-02T06:46:16.663Z,7.32
2023-03-02T06:48:43.646Z,7.37
2023-03-02T06:51:12.611Z,7.47
2023-03-02T06:53:39.587Z,7.56
2023-03-02T06:56:07.727Z,7.68
2023-03-02T06:58:35.127Z,7.75
2023-03-02T07:01:02.170Z,7.81
2023-03-02T07:03:29.245Z,7.82
2023-03-02T07:05:56.295Z,7.77
2023-03-02T07:08:24.605Z,7.72
2023-03-02T07:10:51.551Z,7.70
2023-03-02T07:13:18.594Z,7.61
2023-03-02T07:15:45.582Z,7.54
2023-03-02T07:18:12.718Z,7.53
2023-03-02T07:20:39.664Z,7.51
2023-03-02T07:23:06.937Z,7.56
2023-03-02T07:25:36.910Z,7.62
2023-03-02T07:28:04.547Z,7.62
2023-03-02T07:30:31.659Z,7.64
2023-03-02T07:32:58.618Z,7.74
2023-03-02T07:35:25.610Z,7.86
2023-03-02T07:37:52.852Z,7.98
2023-03-02T07:40:19.910Z,8.05
2023-03-02T07:42:48.215Z,8.13
2023-03-02T07:45:16.954Z,8.15
2023-03-02T07:47:44.008Z,8.22
2023-03-02T07:50:11.880Z,8.32
2023-03-02T07:52:39.532Z,8.43
2023-03-02T07:55:07.409Z,8.54
2023-03-02T07:57:34.675Z,8.62
2023-03-02T08:00:04.693Z,8.70
2023-03-02T08:02:33.437Z,8.80
2023-03-02T08:05:00.426Z,8.89
2023-03-02T08:07:27.396Z,8.96
2023-03-02T08:09:54.407Z,8.99
2023-03-02T08:12:21.411Z,9.00
2023-03-02T08:14:48.538Z,8.97
2023-03-02T08:17:16.764Z,8.97
2023-03-02T08:19:43.922Z,8.99
2023-03-02T08:22:10.946Z,9.02
2023-03-02T08:24:38.032Z,9.03
2023-03-02T08:27:05.141Z,9.04
2023-03-02T08:29:32.293Z,9.04
2023-03-02T08:31:59.944Z,9.05
2023-03-02T08:34:28.279Z,9.07
2023-03-02T08:36:56.823Z,9.09
2023-03-02T08:39:24.235Z,9.04
2023-03-02T08:41:51.680Z,8.91
2023-03-02T08:44:20.875Z,8.77
2023-03-02T08:46:48.871Z,8.63
2023-03-02T08:49:15.936Z,8.43
2023-03-02T08:51:45.497Z,8.30
2023-03-02T08:54:12.991Z,8.17
2023-03-02T08:56:41.429Z,8.24
2023-03-02T08:59:13.398Z,8.31
2023-03-02T09:01:42.637Z,8.43
2023-03-02T09:04:11.237Z,8.57
2023-03-02T09:06:41.636Z,8.70
2023-03-02T09:09:12.542Z,8.74
2023-03-02T09:11:42.115Z,8.83
2023-03-02T09:14:09.504Z,8.96
2023-03-02T09:16:36.550Z,9.04
2023-03-02T09:19:04.332Z,9.06
2023-03-02T09:21:31.652Z,9.11
2023-03-02T09:23:59.408Z,9.20
2023-03-02T09:26:28.095Z,9.29
2023-03-02T09:28:55.464Z,9.37
2023-03-02T09:31:23.049Z,9.46
2023-03-02T09:33:50.120Z,9.52
2023-03-02T09:36:21.925Z,9.58
2023-03-02T09:38:49.413Z,9.57
2023-03-02T09:41:42.594Z,9.49
2023-03-02T09:44:41.529Z,9.45
2023-03-02T09:47:34.561Z,9.55
2023-03-02T09:50:25.297Z,9.62
2023-03-02T09:53:13.568Z,9.61
2023-03-02T09:55:40.521Z,9.65
2023-03-02T09:58:17.732Z,9.63
2023-03-02T10:00:46.627Z,9.62
2023-03-02T10:03:20.253Z,9.65
2023-03-02T10:05:50.446Z,9.73
2023-03-02T10:08:20.991Z,9.82
2023-03-02T10:10:59.694Z,9.85
2023-03-02T10:13:36.050Z,9.91
2023-03-02T10:16:17.049Z,9.96
2023-03-02T10:18:49.230Z,10.05
2023-03-02T10:21:24.909Z,10.13
2023-03-02T10:24:02.281Z,10.16
2023-03-02T10:26:41.551Z,10.16
2023-03-02T10:29:32.811Z,10.14
2023-03-02T10:32:13.827Z,10.15
2023-03-02T10:34:40.926Z,10.16
2023-03-02T10:37:14.701Z,10.11
2023-03-02T10:39:41.995Z,10.12
2023-03-02T10:42:17.853Z,10.09
2023-03-02T10:44:50.807Z,10.17
2023-03-02T10:47:24.267Z,10.23
2023-03-02T10:49:52.550Z,10.29
2023-03-02T10:52:22.402Z,10.30
2023-03-02T10:54:49.914Z,10.35
2023-03-02T10:57:36.887Z,10.37
2023-03-02T11:00:23.130Z,10.43
2023-03-02T11:02:59.062Z,10.50
2023-03-02T11:05:33.238Z,10.59
2023-03-02T11:08:03.711Z,10.67
2023-03-02T11:10:34.380Z,10.73
2023-03-02T11:13:03.557Z,10.79
2023-03-02T11:15:44.618Z,10.81
2023-03-02T11:18:25.008Z,10.81
2023-03-02T11:20:57.400Z,10.73
2023-03-02T11:23:36.734Z,10.62
2023-03-02T11:26:14.727Z,10.59
2023-03-02T11:28:49.107Z,10.66
2023-03-02T11:31:29.670Z,10.71
2023-03-02T11:34:20.431Z,10.79
2023-03-02T11:37:03.537Z,10.87
2023-03-02T11:39:56.974Z,10.95
2023-03-02T11:42:31.039Z,10.96
2023-03-02T11:45:14.034Z,10.93
2023-03-02T11:47:54.287Z,10.88
2023-03-02T11:50:26.115Z,10.84
2023-03-02T11:52:59.279Z,10.73
2023-03-02T11:55:31.506Z,10.68
2023-03-02T11:58:03.209Z,10.69
2023-03-02T12:00:35.754Z,10.71
2023-03-02T12:03:06.880Z,10.71
2023-03-02T12:05:37.359Z,10.74
2023-03-02T12:08:08.171Z,10.77
2023-03-02T12:10:39.944Z,10.72
2023-03-02T12:13:17.498Z,10.70
2023-03-02T12:15:47.646Z,10.70
2023-03-02T12:18:44.720Z,10.69
2023-03-02T12:21:18.146Z,10.76
2023-03-02T12:24:04.053Z,10.85
2023-03-02T12:26:36.490Z,10.95
2023-03-02T12:29:22.523Z,11.07
2023-03-02T12:31:52.920Z,11.14
2023-03-02T12:34:36.459Z,11.11
2023-03-02T12:37:14.360Z,11.05
2023-03-02T12:40:17.156Z,10.95
2023-03-02T12:42:59.418Z,10.93
2023-03-02T12:45:46.207Z,11.00
2023-03-02T12:48:30.216Z,11.03
2023-03-02T12:51:02.928Z,11.10
2023-03-02T12:53:30.321Z,11.23
2023-03-02T12:55:57.655Z,11.34
2023-03-02T12:58:28.105Z,11.48
2023-03-02T13:00:59.043Z,11.54
2023-03-02T13:03:30.210Z,11.58
2023-03-02T13:06:14.924Z,11.65
2023-03-02T13:08:45.568Z,11.75
2023-03-02T13:11:12.967Z,11.77
2023-03-02T13:13:43.167Z,11.78
2023-03-02T13:16:22.822Z,11.79
2023-03-02T13:18:56.679Z,11.84
2023-03-02T13:21:32.904Z,11.81
2023-03-02T13:24:00.887Z,11.75
2023-03-02T13:26:31.601Z,11.75
2023-03-02T13:29:05.622Z,11.80
2023-03-02T13:31:34.403Z,11.82
2023-03-02T13:34:01.757Z,11.82
2023-03-02T13:36:37.301Z,11.78
2023-03-02T13:39:08.946Z,11.75
2023-03-02T13:41:37.540Z,11.63
2023-03-02T13:44:19.701Z,11.38
2023-03-02T13:46:47.805Z,11.32
2023-03-02T13:49:27.713Z,11.31
2023-03-02T13:52:07.072Z,11.30
2023-03-02T13:54:37.723Z,11.26
2023-03-02T13:57:06.483Z,11.30
2023-03-02T13:59:36.517Z,11.36
2023-03-02T14:02:03.797Z,11.45
2023-03-02T14:04:30.805Z,11.54
2023-03-02T14:06:59.346Z,11.55
2023-03-02T14:09:27.246Z,11.58
2023-03-02T14:11:56.930Z,11.63
2023-03-02T14:14:27.760Z,11.69
2023-03-02T14:16:54.991Z,11.79
2023-03-02T14:19:21.947Z,11.89
2023-03-02T14:21:48.936Z,11.96
2023-03-02T14:24:17.220Z,11.96
2023-03-02T14:26:47.751Z,11.86
2023-03-02T14:29:23.050Z,11.60
2023-03-02T14:31:50.401Z,11.46
2023-03-02T14:34:21.452Z,11.39
2023-03-02T14:36:54.434Z,11.39
2023-03-02T14:39:30.328Z,11.38
2023-03-02T14:41:57.460Z,11.37
2023-03-02T14:44:24.579Z,11.37
2023-03-02T14:46:52.803Z,11.42
2023-03-02T14:49:20.343Z,11.46
2023-03-02T14:51:57.386Z,11.44
2023-03-02T14:54:26.676Z,11.31
2023-03-02T14:56:54.038Z,11.21
2023-03-02T14:59:21.095Z,10.99
2023-03-02T15:01:48.052Z,10.96
2023-03-02T15:04:15.003Z,11.05
2023-03-02T15:06:43.728Z,11.15
2023-03-02T15:09:11.347Z,11.28
2023-03-02T15:11:39.781Z,11.37
2023-03-02T15:14:07.717Z,11.37
2023-03-02T15:16:34.844Z,11.31
2023-03-02T15:19:01.857Z,11.28
2023-03-02T15:21:28.804Z,11.24
2023-03-02T15:23:55.780Z,11.22
2023-03-02T15:26:22.743Z,11.18
2023-03-02T15:28:52.125Z,11.17
2023-03-02T15:31:19.463Z,11.19
2023-03-02T15:33:46.708Z,11.23
2023-03-02T15:36:14.456Z,11.26
2023-03-02T15:38:53.070Z,11.26
2023-03-02T15:41:20.100Z,11.31
2023-03-02T15:43:52.165Z,11.36
2023-03-02T15:46:19.592Z,11.42
2023-03-02T15:48:46.564Z,11.39
2023-03-02T15:51:14.082Z,11.31
2023-03-02T15:53:41.034Z,11.22
2023-03-02T15:56:10.732Z,11.13
2023-03-02T15:58:37.950Z,11.06
2023-03-02T16:01:10.926Z,11.01
2023-03-02T16:03:38.180Z,10.98
2023-03-02T16:06:07.175Z,10.94
2023-03-02T16:08:34.502Z,10.88
2023-03-02T16:11:05.637Z,10.84
2023-03-02T16:13:33.483Z,10.81
2023-03-02T16:16:01.488Z,10.76
2023-03-02T16:18:30.509Z,10.66
2023-03-02T16:20:57.589Z,10.59
2023-03-02T16:23:24.790Z,10.37
2023-03-02T16:25:52.240Z,10.13
2023-03-02T16:28:19.919Z,9.90
2023-03-02T16:30:52.326Z,9.77
2023-03-02T16:33:19.472Z,9.77
2023-03-02T16:35:49.353Z,9.85
2023-03-02T16:38:17.269Z,9.89
2023-03-02T16:40:44.324Z,9.89
2023-03-02T16:43:11.262Z,9.94
2023-03-02T16:45:38.569Z,10.03
2023-03-02T16:48:06.853Z,10.13
2023-03-02T16:50:33.837Z,10.20
2023-03-02T16:53:02.694Z,10.25
2023-03-02T16:55:30.091Z,10.25
2023-03-02T16:57:57.171Z,10.24
2023-03-02T17:00:25.309Z,10.26
2023-03-02T17:02:53.957Z,10.25
2023-03-02T17:05:21.742Z,10.25
2023-03-02T17:07:49.527Z,10.21
2023-03-02T17:10:21.625Z,10.13
2023-03-02T17:12:48.852Z,10.10
2023-03-02T17:15:16.302Z,10.09
2023-03-02T17:17:43.315Z,10.08
2023-03-02T17:20:13.280Z,10.12
2023-03-02T17:22:40.204Z,10.14
2023-03-02T17:25:08.926Z,10.16
2023-03-02T17:27:37.266Z,10.15
2023-03-02T17:30:05.837Z,10.17
2023-03-02T17:32:32.934Z,10.08
2023-03-02T17:34:59.990Z,10.03
2023-03-02T17:37:28.253Z,10.00
2023-03-02T17:39:55.354Z,9.99
2023-03-02T17:42:22.735Z,10.01
2023-03-02T17:44:51.183Z,10.03
2023-03-02T17:47:19.086Z,10.01
2023-03-02T17:49:46.119Z,10.01
2023-03-02T17:52:15.420Z,10.03
2023-03-02T17:54:43.763Z,9.89
2023-03-02T17:57:12.187Z,9.63
2023-03-02T17:59:39.226Z,9.44
2023-03-02T18:02:08.070Z,9.33
2023-03-02T18:04:35.120Z,9.29
2023-03-02T18:07:06.754Z,9.29
2023-03-02T18:09:34.034Z,9.23
2023-03-02T18:12:02.477Z,9.04
2023-03-02T18:14:30.641Z,8.96
2023-03-02T18:16:58.118Z,8.97
2023-03-02T18:19:26.433Z,9.01
2023-03-02T18:21:53.990Z,8.98
2023-03-02T18:24:21.071Z,8.88
2023-03-02T18:26:48.002Z,8.83
2023-03-02T18:29:15.419Z,8.81
2023-03-02T18:31:42.458Z,8.78
2023-03-02T18:34:09.859Z,8.75
2023-03-02T18:36:38.148Z,8.69
2023-03-02T18:39:05.180Z,8.75
2023-03-02T18:41:32.505Z,8.79
2023-03-02T18:44:01.242Z,8.79
2023-03-02T18:46:30.690Z,8.84
2023-03-02T18:49:00.485Z,8.93
2023-03-02T18:51:28.405Z,8.93
2023-03-02T18:53:57.241Z,8.88
2023-03-02T18:56:24.556Z,8.92
2023-03-02T18:58:52.471Z,8.97
2023-03-02T19:01:20.564Z,9.02
2023-03-02T19:03:49.005Z,9.09
2023-03-02T19:06:16.721Z,9.14
2023-03-02T19:08:44.126Z,9.21
2023-03-02T19:11:12.466Z,9.30
2023-03-02T19:13:39.524Z,9.37
2023-03-02T19:16:07.505Z,9.41
2023-03-02T19:18:34.565Z,9.41
2023-03-02T19:21:04.186Z,9.43
2023-03-02T19:23:31.878Z,9.44
2023-03-02T19:25:58.922Z,9.48
2023-03-02T19:28:27.525Z,9.57
2023-03-02T19:30:54.487Z,9.60
2023-03-02T19:33:24.610Z,9.65
2023-03-02T19:35:51.979Z,9.66
2023-03-02T19:38:19.216Z,9.60
2023-03-02T19:40:46.414Z,9.53
2023-03-02T19:43:13.370Z,9.49
2023-03-02T19:45:41.795Z,9.48
2023-03-02T19:48:13.428Z,9.42
2023-03-02T19:50:40.992Z,9.36
2023-03-02T19:53:09.797Z,9.33
2023-03-02T19:55:36.937Z,9.28
2023-03-02T19:58:05.099Z,9.28
2023-03-02T20:00:33.483Z,9.28
2023-03-02T20:03:02.060Z,9.29
2023-03-02T20:05:29.188Z,9.26
2023-03-02T20:07:56.305Z,9.26
2023-03-02T20:10:31.180Z,9.28
2023-03-02T20:12:59.627Z,9.34
2023-03-02T20:15:27.781Z,9.30
2023-03-02T20:17:54.888Z,9.18
2023-03-02T20:20:24.602Z,9.09
2023-03-02T20:22:51.525Z,9.07
2023-03-02T20:25:20.126Z,9.10
2023-03-02T20:27:48.989Z,9.18
2023-03-02T20:30:22.928Z,9.22
2023-03-02T20:32:50.057Z,9.23
2023-03-02T20:35:17.629Z,9.24
2023-03-02T20:37:46.861Z,9.15
2023-03-02T20:40:16.543Z,9.12
2023-03-02T20:42:44.652Z,9.11
2023-03-02T20:45:13.761Z,9.13
2023-03-02T20:47:42.461Z,9.09
2023-03-02T20:50:14.555Z,9.08
2023-03-02T20:52:41.749Z,9.14
2023-03-02T20:55:11.762Z,9.19
2023-03-02T20:57:39.717Z,9.22
2023-03-02T21:00:14.622Z,9.13
2023-03-02T21:02:42.372Z,9.05
2023-03-02T21:05:09.829Z,9.01
2023-03-02T21:07:36.875Z,8.96
2023-03-02T21:10:07.895Z,8.92
2023-03-02T21:12:36.328Z,8.90
2023-03-02T21:15:04.529Z,8.89
2023-03-02T21:17:31.448Z,8.90
2023-03-02T21:19:58.932Z,8.90
2023-03-02T21:22:25.845Z,8.92
2023-03-02T21:24:53.003Z,8.96
2023-03-02T21:27:20.993Z,8.99
2023-03-02T21:29:49.508Z,9.05
2023-03-02T21:32:16.641Z,9.08
2023-03-02T21:34:44.829Z,9.11
2023-03-02T21:37:12.200Z,9.07
2023-03-02T21:39:39.219Z,9.04
2023-03-02T21:42:06.197Z,9.00
2023-03-02T21:44:33.109Z,8.99
2023-03-02T21:47:01.321Z,9.01
2023-03-02T21:49:28.392Z,9.03
2023-03-02T21:51:55.381Z,9.02
2023-03-02T21:54:22.460Z,9.02
2023-03-02T21:56:49.471Z,9.05
2023-03-02T21:59:16.734Z,9.10
2023-03-02T22:01:43.937Z,9.15
2023-03-02T22:04:12.327Z,9.19
2023-03-02T22:06:39.267Z,9.19
2023-03-02T22:09:06.182Z,9.18
2023-03-02T22:11:36.245Z,9.19
2023-03-02T22:14:12.206Z,9.19
2023-03-02T22:16:41.697Z,9.19
2023-03-02T22:19:25.512Z,9.20
2023-03-02T22:21:55.239Z,9.23
2023-03-02T22:24:24.977Z,9.24
2023-03-02T22:27:00.574Z,9.23
2023-03-02T22:29:30.048Z,9.22
2023-03-02T22:32:15.494Z,9.18
2023-03-02T22:34:45.984Z,9.18
2023-03-02T22:37:17.496Z,9.14
2023-03-02T22:39:45.982Z,9.10
2023-03-02T22:42:16.969Z,9.05
2023-03-02T22:44:47.419Z,8.99
2023-03-02T22:47:18.359Z,8.97
2023-03-02T22:49:50.598Z,8.94
2023-03-02T22:52:24.062Z,8.90
2023-03-02T22:54:51.616Z,8.89
2023-03-02T22:57:31.123Z,8.82
2023-03-02T23:00:30.555Z,8.76
2023-03-02T23:02:57.618Z,8.78
2023-03-02T23:05:30.136Z,8.82
2023-03-02T23:08:17.110Z,8.87
2023-03-02T23:10:44.638Z,8.91
2023-03-02T23:13:13.703Z,8.91
2023-03-02T23:15:41.510Z,8.93
2023-03-02T23:18:18.528Z,8.96
2023-03-02T23:20:47.104Z,9.02
2023-03-02T23:23:14.024Z,9.08
2023-03-02T23:25:41.334Z,9.15
2023-03-02T23:28:08.346Z,9.22
2023-03-02T23:30:35.263Z,9.26
2023-03-02T23:33:02.299Z,9.28
2023-03-02T23:35:29.203Z,9.29
2023-03-02T23:37:58.525Z,9.30
2023-03-02T23:40:25.468Z,9.28
2023-03-02T23:42:52.372Z,9.25
2023-03-02T23:45:19.439Z,9.22
2023-03-02T23:47:46.364Z,9.20
2023-03-02T23:50:13.473Z,9.17
2023-03-02T23:52:41.230Z,9.12
2023-03-02T23:55:11.273Z,9.09
2023-03-02T23:57:38.202Z,9.07
